createdAt,value
2023-03-16T00:02:50.615Z,7.00
2023-03-16T00:07:52.473Z,6.90
2023-03-16T00:12:55.360Z,6.90
2023-03-16T00:17:57.190Z,6.80
2023-03-16T00:22:59.191Z,6.60
2023-03-16T00:28:04.246Z,6.60
2023-03-16T00:33:06.061Z,6.50
2023-03-16T00:38:07.935Z,6.40
2023-03-16T00:43:09.846Z,6.40
2023-03-16T00:48:12.009Z,6.40
2023-03-16T00:53:13.770Z,6.40
2023-03-16T00:58:15.687Z,6.40
2023-03-16T01:03:17.659Z,6.30
2023-03-16T01:08:19.582Z,6.20
2023-03-16T01:13:22.079Z,6.20
2023-03-16T01:18:25.173Z,6.10
2023-03-16T01:23:29.817Z,6.10
2023-03-16T01:28:32.787Z,6.00
2023-03-16T01:33:35.451Z,6.00
2023-03-16T01:38:39.608Z,6.00
2023-03-16T01:43:42.539Z,6.00
2023-03-16T01:48:44.335Z,6.00
2023-03-16T01:53:49.898Z,6.00
2023-03-16T01:58:58.581Z,6.00
2023-03-16T02:04:18.963Z,5.90
2023-03-16T02:09:22.974Z,5.90
2023-03-16T02:14:24.881Z,5.90
2023-03-16T02:19:54.661Z,5.90
2023-03-16T02:24:56.530Z,6.00
2023-03-16T02:30:19.475Z,5.90
2023-03-16T02:35:33.209Z,6.00
2023-03-16T02:40:37.175Z,5.90
2023-03-16T02:46:05.110Z,5.90
2023-03-16T02:51:07.453Z,5.90
2023-03-16T02:56:09.488Z,5.90
2023-03-16T03:01:12.102Z,5.90
2023-03-16T03:06:14.694Z,5.90
2023-03-16T03:11:18.555Z,5.80
2023-03-16T03:16:21.274Z,5.70
2023-03-16T03:21:24.488Z,5.70
2023-03-16T03:26:26.922Z,5.60
2023-03-16T03:31:31.537Z,5.60
2023-03-16T03:36:34.830Z,5.50
2023-03-16T03:41:36.881Z,5.50
2023-03-16T03:46:41.027Z,5.50
2023-03-16T03:51:44.139Z,5.30
2023-03-16T03:56:51.031Z,5.30
2023-03-16T04:01:53.792Z,5.30
2023-03-16T04:06:57.765Z,5.30
2023-03-16T04:12:01.857Z,5.30
2023-03-16T04:17:04.902Z,5.30
2023-03-16T04:22:08.667Z,5.30
2023-03-16T04:27:12.099Z,5.30
2023-03-16T04:32:15.370Z,5.30
2023-03-16T04:37:19.014Z,5.20
2023-03-16T04:42:21.830Z,5.20
2023-03-16T04:47:23.884Z,5.10
2023-03-16T04:52:25.862Z,5.10
2023-03-16T04:57:27.819Z,5.00
2023-03-16T05:02:29.694Z,5.00
2023-03-16T05:07:35.311Z,4.90
2023-03-16T05:12:38.546Z,4.90
2023-03-16T05:17:42.609Z,4.90
2023-03-16T05:22:48.199Z,4.80
2023-03-16T05:28:03.063Z,4.70
2023-03-16T05:33:13.946Z,4.60
2023-03-16T05:38:16.395Z,4.60
2023-03-16T05:43:21.054Z,4.50
2023-03-16T05:48:25.916Z,4.50
2023-03-16T05:53:31.273Z,4.50
2023-03-16T05:58:40.734Z,4.50
2023-03-16T06:03:43.968Z,4.50
2023-03-16T06:08:52.536Z,4.50
2023-03-16T06:13:58.003Z,4.40
2023-03-16T06:19:01.036Z,4.40
2023-03-16T06:24:04.795Z,4.50
2023-03-16T06:29:07.299Z,4.50
2023-03-16T06:34:11.597Z,4.60
2023-03-16T06:39:14.457Z,4.70
2023-03-16T06:44:21.130Z,4.70
2023-03-16T06:49:33.907Z,4.70
2023-03-16T06:54:38.366Z,4.80
2023-03-16T06:59:41.304Z,4.90
2023-03-16T07:04:43.730Z,5.00
2023-03-16T07:09:45.995Z,5.20
2023-03-16T07:14:51.810Z,5.30
2023-03-16T07:19:57.695Z,5.50
2023-03-16T07:24:59.782Z,5.60
2023-03-16T07:30:05.107Z,5.70
2023-03-16T07:35:11.558Z,5.80
2023-03-16T07:40:14.787Z,5.80
2023-03-16T07:45:18.044Z,5.90
2023-03-16T07:50:22.247Z,6.00
2023-03-16T07:55:24.834Z,6.10
2023-03-16T08:00:28.594Z,6.30
2023-03-16T08:05:32.602Z,6.40
2023-03-16T08:10:37.338Z,6.50
2023-03-16T08:15:47.904Z,6.70
2023-03-16T08:20:58.633Z,6.90
2023-03-16T08:26:01.180Z,7.10
2023-03-16T08:31:07.126Z,7.30
2023-03-16T08:36:20.933Z,7.40
2023-03-16T08:41:25.428Z,7.60
2023-03-16T08:46:28.845Z,7.80
2023-03-16T08:51:34.341Z,8.00
2023-03-16T08:56:36.882Z,8.20
2023-03-16T09:01:40.526Z,8.60
2023-03-16T09:06:42.471Z,9.30
2023-03-16T09:11:45.157Z,10.10
2023-03-16T09:16:47.136Z,10.80
2023-03-16T09:21:49.008Z,11.50
2023-03-16T09:26:50.926Z,11.80
2023-03-16T09:31:53.138Z,12.10
2023-03-16T09:36:55.353Z,12.40
2023-03-16T09:42:14.926Z,12.70
2023-03-16T09:47:29.715Z,13.30
2023-03-16T09:53:12.877Z,13.60
2023-03-16T09:58:22.474Z,13.90
2023-03-16T10:03:34.088Z,14.10
2023-03-16T10:09:08.237Z,14.30
2023-03-16T10:14:11.191Z,14.40
2023-03-16T10:19:25.669Z,14.70
2023-03-16T10:24:34.252Z,14.70
2023-03-16T10:29:37.120Z,14.80
2023-03-16T10:34:39.018Z,14.70
2023-03-16T10:39:43.050Z,14.50
2023-03-16T10:44:46.115Z,14.60
2023-03-16T10:49:48.993Z,14.70
2023-03-16T10:54:56.251Z,14.90
2023-03-16T11:00:11.950Z,15.10
2023-03-16T11:05:14.040Z,15.20
2023-03-16T11:10:46.124Z,15.30
2023-03-16T11:15:55.778Z,15.40
2023-03-16T11:21:05.345Z,15.40
2023-03-16T11:26:17.600Z,15.50
2023-03-16T11:31:40.429Z,15.50
2023-03-16T11:36:57.117Z,15.60
2023-03-16T11:42:16.686Z,15.80
2023-03-16T11:47:52.680Z,15.90
2023-03-16T11:53:24.371Z,16.00
2023-03-16T11:58:38.070Z,16.10
2023-03-16T12:03:59.284Z,16.10
2023-03-16T12:09:16.581Z,16.30
2023-03-16T12:14:34.472Z,16.40
2023-03-16T12:20:07.134Z,16.40
2023-03-16T12:25:23.878Z,16.20
2023-03-16T12:31:01.792Z,16.20
2023-03-16T12:36:38.824Z,16.00
2023-03-16T12:41:57.976Z,15.90
2023-03-16T12:47:22.406Z,15.80
2023-03-16T12:52:24.224Z,15.80
2023-03-16T12:57:27.089Z,15.80
2023-03-16T13:02:35.772Z,16.20
2023-03-16T13:07:46.364Z,16.50
2023-03-16T13:12:48.540Z,16.80
2023-03-16T13:18:06.766Z,16.70
2023-03-16T13:23:18.238Z,16.70
2023-03-16T13:28:26.150Z,16.50
2023-03-16T13:33:33.758Z,16.50
2023-03-16T13:38:36.198Z,16.70
2023-03-16T13:43:44.349Z,16.80
2023-03-16T13:48:50.392Z,16.90
2023-03-16T13:53:53.618Z,17.00
2023-03-16T13:58:58.583Z,17.10
2023-03-16T14:04:08.534Z,17.40
2023-03-16T14:09:18.078Z,17.40
2023-03-16T14:14:32.944Z,17.50
2023-03-16T14:19:47.884Z,17.50
2023-03-16T14:25:00.703Z,17.50
2023-03-16T14:30:19.543Z,17.70
2023-03-16T14:35:22.401Z,18.00
2023-03-16T14:40:31.969Z,17.90
2023-03-16T14:45:36.147Z,18.00
2023-03-16T14:50:38.350Z,17.70
2023-03-16T14:55:40.504Z,17.70
2023-03-16T15:00:52.591Z,17.80
2023-03-16T15:05:55.916Z,17.90
2023-03-16T15:11:06.364Z,18.00
2023-03-16T15:16:12.591Z,18.00
2023-03-16T15:21:23.312Z,18.10
2023-03-16T15:26:27.403Z,18.40
2023-03-16T15:31:29.220Z,18.50
2023-03-16T15:36:31.863Z,18.70
2023-03-16T15:41:45.266Z,18.80
2023-03-16T15:46:49.578Z,18.70
2023-03-16T15:51:51.684Z,18.60
2023-03-16T15:56:55.899Z,18.60
2023-03-16T16:01:57.781Z,18.60
2023-03-16T16:07:02.180Z,18.60
2023-03-16T16:12:04.139Z,18.50
2023-03-16T16:17:15.759Z,18.40
2023-03-16T16:22:19.157Z,18.40
2023-03-16T16:27:21.038Z,18.30
2023-03-16T16:32:23.939Z,18.20
2023-03-16T16:37:25.733Z,18.20
2023-03-16T16:42:27.545Z,18.10
2023-03-16T16:47:29.505Z,18.20
2023-03-16T16:52:32.281Z,18.20
2023-03-16T16:57:34.179Z,18.20
2023-03-16T17:02:51.608Z,18.20
2023-03-16T17:07:54.428Z,18.20
2023-03-16T17:12:57.107Z,18.10
2023-03-16T17:18:13.303Z,18.10
2023-03-16T17:23:36.601Z,18.10
2023-03-16T17:28:43.237Z,18.00
2023-03-16T17:33:45.074Z,17.90
2023-03-16T17:38:47.891Z,17.80
2023-03-16T17:43:55.360Z,17.70
2023-03-16T17:48:57.174Z,17.60
2023-03-16T17:53:58.988Z,17.40
2023-03-16T17:59:05.494Z,17.30
2023-03-16T18:04:23.507Z,17.10
2023-03-16T18:09:25.321Z,16.90
2023-03-16T18:14:39.761Z,16.70
2023-03-16T18:19:43.485Z,16.40
2023-03-16T18:24:46.440Z,16.20
2023-03-16T18:29:48.372Z,16.00
2023-03-16T18:34:52.420Z,15.80
2023-03-16T18:39:54.993Z,15.50
2023-03-16T18:44:57.142Z,15.30
2023-03-16T18:49:59.815Z,15.00
2023-03-16T18:55:01.659Z,14.80
2023-03-16T19:00:04.337Z,14.60
2023-03-16T19:05:35.831Z,14.40
2023-03-16T19:10:41.967Z,14.20
2023-03-16T19:15:43.843Z,14.10
2023-03-16T19:20:50.906Z,14.00
2023-03-16T19:25:54.548Z,13.80
2023-03-16T19:30:57.209Z,13.50
2023-03-16T19:35:59.510Z,13.20
2023-03-16T19:41:01.595Z,13.00
2023-03-16T19:46:03.491Z,13.00
2023-03-16T19:51:06.146Z,13.00
2023-03-16T19:56:15.269Z,12.80
2023-03-16T20:01:39.733Z,12.60
2023-03-16T20:06:41.680Z,12.50
2023-03-16T20:11:43.815Z,12.30
2023-03-16T20:16:48.047Z,12.20
2023-03-16T20:21:50.049Z,12.10
2023-03-16T20:26:53.938Z,12.00
2023-03-16T20:31:56.158Z,12.00
2023-03-16T20:36:58.727Z,12.00
2023-03-16T20:42:00.951Z,11.90
2023-03-16T20:47:02.808Z,11.80
2023-03-16T20:52:20.344Z,11.70
2023-03-16T20:57:27.457Z,11.70
2023-03-16T21:02:35.137Z,11.60
2023-03-16T21:07:36.991Z,11.40
2023-03-16T21:12:44.744Z,11.30
2023-03-16T21:17:47.520Z,11.20
2023-03-16T21:22:52.328Z,11.00
2023-03-16T21:27:55.531Z,10.90
2023-03-16T21:32:59.825Z,10.80
2023-03-16T21:38:11.818Z,10.70
2023-03-16T21:43:14.543Z,10.50
2023-03-16T21:48:37.912Z,10.50
2023-03-16T21:53:40.190Z,10.40
2023-03-16T21:58:43.427Z,10.40
2023-03-16T22:03:53.294Z,10.30
2023-03-16T22:08:56.557Z,10.30
2023-03-16T22:14:01.901Z,10.30
2023-03-16T22:19:04.503Z,10.20
2023-03-16T22:24:15.093Z,10.10
2023-03-16T22:29:35.106Z,10.10
2023-03-16T22:34:45.663Z,10.10
2023-03-16T22:39:48.241Z,10.00
2023-03-16T22:44:50.227Z,9.90
2023-03-16T22:49:52.322Z,9.70
2023-03-16T22:54:54.244Z,9.70
2023-03-16T22:59:56.470Z,9.60
2023-03-16T23:04:58.333Z,9.50
2023-03-16T23:10:00.539Z,9.40
2023-03-16T23:15:03.324Z,9.40
2023-03-16T23:20:27.569Z,9.40
2023-03-16T23:25:29.525Z,9.30
2023-03-16T23:30:32.365Z,9.20
2023-03-16T23:35:34.605Z,9.20
2023-03-16T23:40:38.515Z,9.10
2023-03-16T23:45:48.422Z,9.10
2023-03-16T23:50:55.044Z,9.00
2023-03-16T23:55:57.348Z,8.90
